createdAt,value
2019-03-20T00:01:44.214Z,23.80
2019-03-20T00:04:13.641Z,27.93
2019-03-20T00:06:43.112Z,26.07
2019-03-20T00:09:11.459Z,27.93
2019-03-20T00:11:39.883Z,23.87
2019-03-20T00:14:08.250Z,27.83
2019-03-20T00:16:36.613Z,28.63
2019-03-20T00:19:06.672Z,25.03
2019-03-20T00:21:38.076Z,32.67
2019-03-20T00:24:07.522Z,24.50
2019-03-20T00:26:40.495Z,26.20
2019-03-20T00:29:08.981Z,26.40
2019-03-20T00:31:37.436Z,26.13
2019-03-20T00:34:05.801Z,21.43
2019-03-20T00:36:34.242Z,27.67
2019-03-20T00:39:02.591Z,28.80
2019-03-20T00:41:31.005Z,24.03
2019-03-20T00:44:02.673Z,28.57
2019-03-20T00:46:32.841Z,27.17
2019-03-20T00:49:03.029Z,28.13
2019-03-20T00:51:33.752Z,23.23
2019-03-20T00:54:03.057Z,32.97
2019-03-20T00:56:33.804Z,23.33
2019-03-20T00:59:04.108Z,21.73
2019-03-20T01:01:34.569Z,28.00
2019-03-20T01:04:03.200Z,27.07
2019-03-20T01:06:31.618Z,27.87
2019-03-20T01:08:59.979Z,27.30
2019-03-20T01:11:28.420Z,27.03
2019-03-20T01:13:57.103Z,28.50
2019-03-20T01:16:27.515Z,28.03
2019-03-20T01:18:57.677Z,23.93
2019-03-20T01:21:27.059Z,25.23
2019-03-20T01:23:55.871Z,27.20
2019-03-20T01:26:25.667Z,29.60
2019-03-20T01:28:54.657Z,29.60
2019-03-20T01:31:24.419Z,25.33
2019-03-20T01:33:54.867Z,26.80
2019-03-20T01:36:22.966Z,27.93
2019-03-20T01:38:51.608Z,28.63
2019-03-20T01:41:20.087Z,25.87
2019-03-20T01:43:48.510Z,27.93
2019-03-20T01:46:16.924Z,29.57
2019-03-20T01:48:45.409Z,34.43
2019-03-20T01:51:17.233Z,26.43
2019-03-20T01:53:45.651Z,29.77
2019-03-20T01:56:14.128Z,31.53
2019-03-20T01:58:44.445Z,30.00
2019-03-20T02:01:13.445Z,28.40
2019-03-20T02:03:41.979Z,28.20
2019-03-20T02:06:10.403Z,28.73
2019-03-20T02:08:38.827Z,31.83
2019-03-20T02:11:07.874Z,27.03
2019-03-20T02:13:36.307Z,30.53
2019-03-20T02:16:14.125Z,32.27
2019-03-20T02:18:42.513Z,26.10
2019-03-20T02:21:12.038Z,31.70
2019-03-20T02:23:40.431Z,28.73
2019-03-20T02:26:11.006Z,28.00
2019-03-20T02:28:39.583Z,23.50
2019-03-20T02:31:08.035Z,26.77
2019-03-20T02:33:37.536Z,24.90
2019-03-20T02:36:06.797Z,26.97
2019-03-20T02:38:41.204Z,29.23
2019-03-20T02:41:09.648Z,31.47
2019-03-20T02:43:38.000Z,31.13
2019-03-20T02:46:07.167Z,25.73
2019-03-20T02:48:35.650Z,30.73
2019-03-20T02:51:05.054Z,28.00
2019-03-20T02:53:34.079Z,30.30
2019-03-20T02:56:02.457Z,27.50
2019-03-20T02:58:30.814Z,27.40
2019-03-20T03:01:02.799Z,29.30
2019-03-20T03:03:31.334Z,30.33
2019-03-20T03:06:06.773Z,33.20
2019-03-20T03:08:31.117Z,25.67
2019-03-20T03:11:00.825Z,26.80
2019-03-20T03:13:30.802Z,28.13
2019-03-20T03:16:00.630Z,31.53
2019-03-20T03:18:30.963Z,35.70
2019-03-20T03:21:00.840Z,31.83
2019-03-20T03:23:29.276Z,33.57
2019-03-20T03:25:58.695Z,26.63
2019-03-20T03:28:27.136Z,35.97
2019-03-20T03:30:55.548Z,27.50
2019-03-20T03:33:23.926Z,28.67
2019-03-20T03:35:54.554Z,31.07
2019-03-20T03:38:22.950Z,31.83
2019-03-20T03:40:52.598Z,34.77
2019-03-20T03:43:24.022Z,28.27
2019-03-20T03:45:51.204Z,34.73
2019-03-20T03:48:20.487Z,29.37
2019-03-20T03:50:50.132Z,34.13
2019-03-20T03:53:18.509Z,31.80
2019-03-20T03:55:46.872Z,29.40
2019-03-20T03:58:16.410Z,37.30
2019-03-20T04:00:44.916Z,35.03
2019-03-20T04:03:13.327Z,33.77
2019-03-20T04:05:42.740Z,35.27
2019-03-20T04:08:11.258Z,31.47
2019-03-20T04:10:39.692Z,35.00
2019-03-20T04:13:08.426Z,31.37
2019-03-20T04:15:38.055Z,34.37
2019-03-20T04:18:07.108Z,35.40
2019-03-20T04:20:36.769Z,31.73
2019-03-20T04:23:06.076Z,29.57
2019-03-20T04:25:34.637Z,34.93
2019-03-20T04:28:03.060Z,29.63
2019-03-20T04:30:32.143Z,31.70
2019-03-20T04:33:00.648Z,34.70
2019-03-20T04:35:30.696Z,36.50
2019-03-20T04:37:59.108Z,32.70
2019-03-20T04:40:28.087Z,28.93
2019-03-20T04:42:56.496Z,35.87
2019-03-20T04:45:24.955Z,35.13
2019-03-20T04:47:54.411Z,35.37
2019-03-20T04:50:22.839Z,34.00
2019-03-20T04:52:51.232Z,33.80
2019-03-20T04:55:21.163Z,31.27
2019-03-20T04:57:49.520Z,32.87
2019-03-20T05:00:19.980Z,30.90
2019-03-20T05:02:48.333Z,29.00
2019-03-20T05:05:21.306Z,33.73
2019-03-20T05:07:49.899Z,36.13
2019-03-20T05:10:18.275Z,32.53
2019-03-20T05:12:46.626Z,44.05
2019-03-20T05:15:15.079Z,30.77
2019-03-20T05:17:43.553Z,30.17
2019-03-20T05:20:13.579Z,35.57
2019-03-20T05:22:44.188Z,34.70
2019-03-20T05:25:12.623Z,36.57
2019-03-20T05:27:51.463Z,38.67
2019-03-20T05:30:22.177Z,39.03
2019-03-20T05:32:50.603Z,34.73
2019-03-20T05:35:19.102Z,38.70
2019-03-20T05:37:47.824Z,41.63
2019-03-20T05:40:20.723Z,41.73
2019-03-20T05:42:49.907Z,42.80
2019-03-20T05:45:18.313Z,38.83
2019-03-20T05:47:48.785Z,38.00
2019-03-20T05:50:17.229Z,41.80
2019-03-20T05:52:47.015Z,47.63
2019-03-20T05:55:15.435Z,42.43
2019-03-20T05:57:45.611Z,33.90
2019-03-20T06:00:15.017Z,39.83
2019-03-20T06:02:43.640Z,42.20
2019-03-20T06:05:12.124Z,43.33
2019-03-20T06:07:44.135Z,37.63
2019-03-20T06:10:14.152Z,35.20
2019-03-20T06:12:45.057Z,31.30
2019-03-20T06:15:14.810Z,35.77
2019-03-20T06:17:46.735Z,39.60
2019-03-20T06:20:16.924Z,37.83
2019-03-20T06:22:45.395Z,34.77
2019-03-20T06:25:13.957Z,37.07
2019-03-20T06:27:42.399Z,41.53
2019-03-20T06:30:17.199Z,42.90
2019-03-20T06:32:45.826Z,39.77
2019-03-20T06:35:14.272Z,45.53
2019-03-20T06:37:44.701Z,34.50
2019-03-20T06:40:15.661Z,34.93
2019-03-20T06:42:45.320Z,35.73
2019-03-20T06:45:17.123Z,39.40
2019-03-20T06:47:45.563Z,33.67
2019-03-20T06:50:14.345Z,36.10
2019-03-20T06:52:43.647Z,31.57
2019-03-20T06:55:12.092Z,32.97
2019-03-20T06:57:40.453Z,31.60
2019-03-20T07:00:29.689Z,35.13
2019-03-20T07:02:59.588Z,34.73
2019-03-20T07:05:47.171Z,28.00
2019-03-20T07:08:15.799Z,28.43
2019-03-20T07:11:07.411Z,31.10
2019-03-20T07:13:35.867Z,27.20
2019-03-20T07:16:04.519Z,32.33
2019-03-20T07:18:33.087Z,30.73
2019-03-20T07:21:01.574Z,28.00
2019-03-20T07:23:30.123Z,27.93
2019-03-20T07:25:58.811Z,28.87
2019-03-20T07:28:27.245Z,34.60
2019-03-20T07:30:56.012Z,25.57
2019-03-20T07:33:25.092Z,30.10
2019-03-20T07:35:56.664Z,26.93
2019-03-20T07:38:25.099Z,29.73
2019-03-20T07:40:53.542Z,27.10
2019-03-20T07:43:21.922Z,22.93
2019-03-20T07:45:50.405Z,26.67
2019-03-20T07:48:22.391Z,21.97
2019-03-20T07:50:48.975Z,22.60
2019-03-20T07:53:17.412Z,19.50
2019-03-20T07:55:45.784Z,20.60
2019-03-20T07:58:14.175Z,23.13
2019-03-20T08:00:42.648Z,21.60
2019-03-20T08:03:11.213Z,29.30
2019-03-20T08:05:39.669Z,25.60
2019-03-20T08:08:08.135Z,19.13
2019-03-20T08:10:36.852Z,18.07
2019-03-20T08:13:05.351Z,20.20
2019-03-20T08:15:33.871Z,17.33
2019-03-20T08:18:02.353Z,16.07
2019-03-20T08:20:30.788Z,16.87
2019-03-20T08:22:59.295Z,18.20
2019-03-20T08:25:27.819Z,18.53
2019-03-20T08:27:56.251Z,16.03
2019-03-20T08:30:24.713Z,18.33
2019-03-20T08:32:53.163Z,14.07
2019-03-20T08:35:21.524Z,13.33
2019-03-20T08:37:53.015Z,14.20
2019-03-20T08:40:21.936Z,12.07
2019-03-20T08:42:50.441Z,15.37
2019-03-20T08:45:18.993Z,15.93
2019-03-20T08:47:47.464Z,14.50
2019-03-20T08:50:16.633Z,12.33
2019-03-20T08:52:45.155Z,12.33
2019-03-20T08:55:13.679Z,13.93
2019-03-20T08:57:42.130Z,14.13
2019-03-20T09:00:12.413Z,14.50
2019-03-20T09:02:41.121Z,16.77
2019-03-20T09:05:09.590Z,17.23
2019-03-20T09:07:46.904Z,17.20
2019-03-20T09:10:10.015Z,17.73
2019-03-20T09:12:38.391Z,13.27
2019-03-20T09:15:07.487Z,17.00
2019-03-20T09:17:35.948Z,13.10
2019-03-20T09:20:04.483Z,18.63
2019-03-20T09:22:33.028Z,14.43
2019-03-20T09:25:01.475Z,16.17
2019-03-20T09:27:29.822Z,15.77
2019-03-20T09:29:58.165Z,13.80
2019-03-20T09:32:26.668Z,13.67
2019-03-20T09:34:55.088Z,20.40
2019-03-20T09:37:23.456Z,14.80
2019-03-20T09:39:51.980Z,13.93
2019-03-20T09:42:20.391Z,16.43
2019-03-20T09:44:48.747Z,18.83
2019-03-20T09:47:17.363Z,16.33
2019-03-20T09:49:45.715Z,17.37
2019-03-20T09:52:14.080Z,13.73
2019-03-20T09:54:42.445Z,17.10
2019-03-20T09:57:10.877Z,14.37
2019-03-20T09:59:39.230Z,15.83
2019-03-20T10:02:07.691Z,15.50
2019-03-20T10:04:36.322Z,19.80
2019-03-20T10:07:04.751Z,19.17
2019-03-20T10:09:39.366Z,17.10
2019-03-20T10:12:07.738Z,17.77
2019-03-20T10:14:36.198Z,17.10
2019-03-20T10:17:04.631Z,16.90
2019-03-20T10:19:33.114Z,14.90
2019-03-20T10:22:01.711Z,16.17
2019-03-20T10:24:30.198Z,20.23
2019-03-20T10:26:58.632Z,14.70
2019-03-20T10:29:26.997Z,19.67
2019-03-20T10:31:55.371Z,19.03
2019-03-20T10:34:24.782Z,19.07
2019-03-20T10:36:53.141Z,15.97
2019-03-20T10:39:21.672Z,11.67
2019-03-20T10:41:50.159Z,14.50
2019-03-20T10:44:18.528Z,13.43
2019-03-20T10:46:47.834Z,12.60
2019-03-20T10:49:16.463Z,7.80
2019-03-20T10:51:44.891Z,7.73
2019-03-20T10:54:16.508Z,9.63
2019-03-20T10:56:44.364Z,11.33
2019-03-20T10:59:12.739Z,8.47
2019-03-20T11:01:42.826Z,6.47
2019-03-20T11:04:11.467Z,6.50
2019-03-20T11:06:39.827Z,7.57
2019-03-20T11:09:17.657Z,6.03
2019-03-20T11:11:38.551Z,5.90
2019-03-20T11:14:06.963Z,6.00
2019-03-20T11:16:35.640Z,5.67
2019-03-20T11:19:06.135Z,6.20
2019-03-20T11:21:34.675Z,4.33
2019-03-20T11:24:03.164Z,3.13
2019-03-20T11:26:31.591Z,4.27
2019-03-20T11:29:00.019Z,3.83
2019-03-20T11:31:28.607Z,4.60
2019-03-20T11:33:57.158Z,3.73
2019-03-20T11:36:25.696Z,6.00
2019-03-20T11:38:54.211Z,4.77
2019-03-20T11:41:22.563Z,5.90
2019-03-20T11:43:50.984Z,4.20
2019-03-20T11:46:19.992Z,4.63
2019-03-20T11:48:48.712Z,5.13
2019-03-20T11:51:17.059Z,1.97
2019-03-20T11:53:45.427Z,4.70
2019-03-20T11:56:15.697Z,3.10
2019-03-20T11:58:44.067Z,3.30
2019-03-20T12:01:12.567Z,3.93
2019-03-20T12:03:41.079Z,3.97
2019-03-20T12:06:10.008Z,2.57
2019-03-20T12:08:38.558Z,3.17
2019-03-20T12:11:09.059Z,4.53
2019-03-20T12:13:38.958Z,3.00
2019-03-20T12:16:08.472Z,8.20
2019-03-20T12:18:39.283Z,2.83
2019-03-20T12:21:08.185Z,2.70
2019-03-20T12:23:40.499Z,4.97
2019-03-20T12:26:09.953Z,5.53
2019-03-20T12:28:44.307Z,4.03
2019-03-20T12:31:12.733Z,4.73
2019-03-20T12:33:41.271Z,4.73
2019-03-20T12:36:10.794Z,2.80
2019-03-20T12:38:39.331Z,3.50
2019-03-20T12:41:07.979Z,3.40
2019-03-20T12:43:36.452Z,3.10
2019-03-20T12:46:04.908Z,4.20
2019-03-20T12:48:35.391Z,5.07
2019-03-20T12:51:05.981Z,7.53
2019-03-20T12:53:35.526Z,3.47
2019-03-20T12:56:04.091Z,5.03
2019-03-20T12:58:33.496Z,3.80
2019-03-20T13:01:02.044Z,4.17
2019-03-20T13:03:33.752Z,4.70
2019-03-20T13:06:06.773Z,6.37
2019-03-20T13:08:38.395Z,5.73
2019-03-20T13:11:06.863Z,5.67
2019-03-20T13:13:35.244Z,5.67
2019-03-20T13:16:03.781Z,6.43
2019-03-20T13:18:33.195Z,5.23
2019-03-20T13:21:01.604Z,4.70
2019-03-20T13:23:30.795Z,6.97
2019-03-20T13:26:00.880Z,6.83
2019-03-20T13:28:29.573Z,6.47
2019-03-20T13:30:59.695Z,7.23
2019-03-20T13:33:28.247Z,4.63
2019-03-20T13:35:58.731Z,7.70
2019-03-20T13:38:27.166Z,6.97
2019-03-20T13:40:55.587Z,8.40
2019-03-20T13:43:24.041Z,7.83
2019-03-20T13:46:19.699Z,8.17
2019-03-20T13:48:55.115Z,5.97
2019-03-20T13:51:23.536Z,7.37
2019-03-20T13:53:51.974Z,7.93
2019-03-20T13:56:20.435Z,6.20
2019-03-20T13:58:48.855Z,6.90
2019-03-20T14:01:17.297Z,9.47
2019-03-20T14:03:46.863Z,9.07
2019-03-20T14:06:15.292Z,6.67
2019-03-20T14:08:44.691Z,7.67
2019-03-20T14:11:13.134Z,7.37
2019-03-20T14:13:41.570Z,13.17
2019-03-20T14:16:10.171Z,7.17
2019-03-20T14:18:38.856Z,7.57
2019-03-20T14:21:10.709Z,12.90
2019-03-20T14:23:39.155Z,8.13
2019-03-20T14:26:07.591Z,9.40
2019-03-20T14:28:36.047Z,10.30
2019-03-20T14:31:04.642Z,10.03
2019-03-20T14:33:33.016Z,11.03
2019-03-20T14:36:01.442Z,6.80
2019-03-20T14:38:29.835Z,7.33
2019-03-20T14:40:58.224Z,7.67
2019-03-20T14:43:28.718Z,10.47
2019-03-20T14:45:57.067Z,10.53
2019-03-20T14:48:25.603Z,10.93
2019-03-20T14:50:54.032Z,10.47
2019-03-20T14:53:22.398Z,9.20
2019-03-20T14:55:50.855Z,11.37
2019-03-20T14:58:19.307Z,10.53
2019-03-20T15:00:47.876Z,9.37
2019-03-20T15:03:16.242Z,7.97
2019-03-20T15:05:44.848Z,11.17
2019-03-20T15:08:13.219Z,7.30
2019-03-20T15:10:45.874Z,8.57
2019-03-20T15:13:11.827Z,10.33
2019-03-20T15:15:44.923Z,9.40
2019-03-20T15:18:13.351Z,10.90
2019-03-20T15:20:41.797Z,21.63
2019-03-20T15:23:10.266Z,11.93
2019-03-20T15:25:38.641Z,10.70
2019-03-20T15:28:07.007Z,12.63
2019-03-20T15:30:35.519Z,11.40
2019-03-20T15:33:03.971Z,12.10
2019-03-20T15:35:32.332Z,12.63
2019-03-20T15:38:00.851Z,11.03
2019-03-20T15:40:29.320Z,12.67
2019-03-20T15:42:57.778Z,10.50
2019-03-20T15:45:26.280Z,9.73
2019-03-20T15:47:54.723Z,9.80
2019-03-20T15:50:23.550Z,9.03
2019-03-20T15:52:52.015Z,12.47
2019-03-20T15:55:24.607Z,13.00
2019-03-20T15:57:53.039Z,10.33
2019-03-20T16:00:21.524Z,11.97
2019-03-20T16:02:53.925Z,7.63
2019-03-20T16:05:22.347Z,12.20
2019-03-20T16:07:50.874Z,9.53
2019-03-20T16:10:19.970Z,9.10
2019-03-20T16:12:48.471Z,10.57
2019-03-20T16:15:17.569Z,11.70
2019-03-20T16:17:46.037Z,8.97
2019-03-20T16:20:35.168Z,11.60
2019-03-20T16:23:03.688Z,10.17
2019-03-20T16:25:32.117Z,10.97
2019-03-20T16:28:00.656Z,11.03
2019-03-20T16:30:29.099Z,11.87
2019-03-20T16:32:57.527Z,9.20
2019-03-20T16:35:26.006Z,12.97
2019-03-20T16:37:54.445Z,11.47
2019-03-20T16:40:24.950Z,9.00
2019-03-20T16:42:53.363Z,11.13
2019-03-20T16:45:22.832Z,11.33
2019-03-20T16:47:51.350Z,13.27
2019-03-20T16:50:38.343Z,11.50
2019-03-20T16:53:06.791Z,12.20
2019-03-20T16:55:35.300Z,10.90
2019-03-20T16:58:03.805Z,10.87
2019-03-20T17:00:32.262Z,9.93
2019-03-20T17:03:01.019Z,10.17
2019-03-20T17:05:29.684Z,10.03
2019-03-20T17:07:58.253Z,11.77
2019-03-20T17:10:27.875Z,12.77
2019-03-20T17:12:56.363Z,9.70
2019-03-20T17:15:25.104Z,9.20
2019-03-20T17:17:53.611Z,11.90
2019-03-20T17:20:22.080Z,13.53
2019-03-20T17:22:51.568Z,13.67
2019-03-20T17:25:20.028Z,10.57
2019-03-20T17:27:48.543Z,11.23
2019-03-20T17:30:18.107Z,10.60
2019-03-20T17:32:46.579Z,12.77
2019-03-20T17:35:15.065Z,11.80
2019-03-20T17:37:43.461Z,10.80
2019-03-20T17:40:12.717Z,13.43
2019-03-20T17:42:43.063Z,12.97
2019-03-20T17:45:12.297Z,12.40
2019-03-20T17:47:40.764Z,11.37
2019-03-20T17:50:11.099Z,9.73
2019-03-20T17:52:39.688Z,16.00
2019-03-20T17:55:08.271Z,13.30
2019-03-20T17:57:36.740Z,12.57
2019-03-20T18:00:06.216Z,12.90
2019-03-20T18:02:34.711Z,11.40
2019-03-20T18:05:03.330Z,11.97
2019-03-20T18:07:31.910Z,13.50
2019-03-20T18:10:00.445Z,13.38
2019-03-20T18:12:29.037Z,12.57
2019-03-20T18:14:57.536Z,10.10
2019-03-20T18:17:26.051Z,13.90
2019-03-20T18:19:54.645Z,12.60
2019-03-20T18:22:23.168Z,14.23
2019-03-20T18:24:52.164Z,10.20
2019-03-20T18:27:20.760Z,11.63
2019-03-20T18:29:49.369Z,13.17
2019-03-20T18:32:17.847Z,11.53
2019-03-20T18:34:46.359Z,12.20
2019-03-20T18:37:14.841Z,11.27
2019-03-20T18:39:45.565Z,11.57
2019-03-20T18:42:14.136Z,13.43
2019-03-20T18:44:42.794Z,11.37
2019-03-20T18:47:13.347Z,15.77
2019-03-20T18:49:42.015Z,10.77
2019-03-20T18:52:10.530Z,11.33
2019-03-20T18:54:46.381Z,9.90
2019-03-20T18:57:14.925Z,10.50
2019-03-20T18:59:43.472Z,9.47
2019-03-20T19:02:12.213Z,12.40
2019-03-20T19:04:40.785Z,13.10
2019-03-20T19:07:10.362Z,13.83
2019-03-20T19:09:39.082Z,10.90
2019-03-20T19:12:08.901Z,12.10
2019-03-20T19:14:37.888Z,10.23
2019-03-20T19:17:07.703Z,15.60
2019-03-20T19:19:37.484Z,12.43
2019-03-20T19:22:06.069Z,14.03
2019-03-20T19:24:37.035Z,9.13
2019-03-20T19:27:05.685Z,13.70
2019-03-20T19:29:36.263Z,15.97
2019-03-20T19:32:06.145Z,15.77
2019-03-20T19:34:36.623Z,13.53
2019-03-20T19:37:06.181Z,15.57
2019-03-20T19:39:35.948Z,13.63
2019-03-20T19:42:05.813Z,14.03
2019-03-20T19:44:36.504Z,14.07
2019-03-20T19:47:06.238Z,15.50
2019-03-20T19:49:34.825Z,14.57
2019-03-20T19:52:09.478Z,13.77
2019-03-20T19:54:37.988Z,15.30
2019-03-20T19:57:06.572Z,14.30
2019-03-20T19:59:35.720Z,14.27
2019-03-20T20:02:04.385Z,13.30
2019-03-20T20:04:32.788Z,15.37
2019-03-20T20:07:07.396Z,14.93
2019-03-20T20:09:35.885Z,15.37
2019-03-20T20:12:04.517Z,19.70
2019-03-20T20:14:34.095Z,16.53
2019-03-20T20:17:02.641Z,14.47
2019-03-20T20:19:31.263Z,14.87
2019-03-20T20:21:59.800Z,15.00
2019-03-20T20:24:30.449Z,12.50
2019-03-20T20:26:58.933Z,17.93
2019-03-20T20:29:27.522Z,13.23
2019-03-20T20:31:56.008Z,13.70
2019-03-20T20:34:24.640Z,14.77
2019-03-20T20:36:56.475Z,19.50
2019-03-20T20:39:25.081Z,21.77
2019-03-20T20:41:53.988Z,15.30
2019-03-20T20:44:22.652Z,17.67
2019-03-20T20:46:52.309Z,19.23
2019-03-20T20:49:22.920Z,24.33
2019-03-20T20:51:51.514Z,17.00
2019-03-20T20:54:25.468Z,18.00
2019-03-20T20:56:54.127Z,19.60
2019-03-20T20:59:22.605Z,18.23
2019-03-20T21:01:51.106Z,20.77
2019-03-20T21:04:19.880Z,16.10
2019-03-20T21:06:49.445Z,18.70
2019-03-20T21:09:17.972Z,18.13
2019-03-20T21:11:46.549Z,18.40
2019-03-20T21:14:26.129Z,20.50
2019-03-20T21:16:54.901Z,18.37
2019-03-20T21:19:32.137Z,17.07
2019-03-20T21:22:19.921Z,21.13
2019-03-20T21:24:48.787Z,17.63
2019-03-20T21:27:36.768Z,16.83
2019-03-20T21:30:33.346Z,18.50
2019-03-20T21:33:02.599Z,18.00
2019-03-20T21:35:49.630Z,18.20
2019-03-20T21:38:19.372Z,16.80
2019-03-20T21:41:23.159Z,15.83
2019-03-20T21:44:15.606Z,17.27
2019-03-20T21:46:51.565Z,13.57
2019-03-20T21:49:20.317Z,13.90
2019-03-20T21:51:49.152Z,17.97
2019-03-20T21:54:36.872Z,15.23
2019-03-20T21:57:35.818Z,14.83
2019-03-20T22:00:13.950Z,14.50
2019-03-20T22:02:42.969Z,15.90
2019-03-20T22:05:23.061Z,16.63
2019-03-20T22:07:47.933Z,16.20
2019-03-20T22:10:34.237Z,15.37
2019-03-20T22:13:18.048Z,15.70
2019-03-20T22:15:43.721Z,16.40
2019-03-20T22:18:37.463Z,14.37
2019-03-20T22:21:20.309Z,14.77
2019-03-20T22:24:06.312Z,14.47
2019-03-20T22:27:11.378Z,14.10
2019-03-20T22:29:40.209Z,14.03
2019-03-20T22:32:26.415Z,13.97
2019-03-20T22:35:17.117Z,15.57
2019-03-20T22:37:45.826Z,18.93
2019-03-20T22:40:51.903Z,15.90
2019-03-20T22:43:30.223Z,15.97
2019-03-20T22:46:10.994Z,14.83
2019-03-20T22:48:48.278Z,15.90
2019-03-20T22:51:32.907Z,15.53
2019-03-20T22:54:21.671Z,17.97
2019-03-20T22:56:55.659Z,13.50
2019-03-20T22:59:24.454Z,12.63
2019-03-20T23:01:55.205Z,14.90
2019-03-20T23:04:29.149Z,11.43
2019-03-20T23:06:57.935Z,18.53
2019-03-20T23:09:26.693Z,13.07
2019-03-20T23:11:55.973Z,14.10
2019-03-20T23:14:24.672Z,14.17
2019-03-20T23:16:53.439Z,14.20
2019-03-20T23:19:22.140Z,14.30
2019-03-20T23:24:20.645Z,17.83
2019-03-20T23:26:49.404Z,13.73
2019-03-20T23:29:18.027Z,15.93
2019-03-20T23:31:46.719Z,13.73
2019-03-20T23:34:17.455Z,13.77
2019-03-20T23:36:46.183Z,18.63
2019-03-20T23:39:14.901Z,12.77
2019-03-20T23:41:43.623Z,17.00
2019-03-20T23:44:12.326Z,13.63
2019-03-20T23:46:40.954Z,17.73
2019-03-20T23:49:11.311Z,14.77
2019-03-20T23:51:40.139Z,14.23
2019-03-20T23:54:09.239Z,14.07
2019-03-20T23:56:38.090Z,16.03
2019-03-20T23:59:07.135Z,17.47
